KCEW/CEW METAR and TAF weather

Enter ICAO airport designator
Station Type Date Time Source
KCEW METAR 2020/06/06 20:35 UTC NOAA

KCEW 062035Z AUTO 11009G19KT 4SM -RA BR FEW021 SCT049 OVC060 23/22 A2993 RMK AO2 P0011 T02330222


Station Type Date Time Source
KCEW Decoded METAR 2020/06/06 20:35 UTC NOAA

CRESTVIEW SIKES AIRPORT, FL, United States (KCEW) 30-46N 086-31W 55M
Jun 06, 2020 - 04:35 PM EDT / 2020.06.06 2035 UTC
Wind: from the ESE (110 degrees) at 10 MPH (9 KT) gusting to 22 MPH (19 KT):0
Visibility: 4 mile(s):0
Sky conditions: overcast
Weather: light rain; mist
Precipitation last hour: 0.11 inches
Temperature: 73.9 F (23.3 C)
Dew Point: 72.0 F (22.2 C)
Relative Humidity: 93%
Pressure (altimeter): 29.93 in. Hg (1013 hPa)
ob: KCEW 062035Z AUTO 11009G19KT 4SM -RA BR FEW021 SCT049 OVC060 23/22 A2993 RMK AO2 P0011 T02330222
cycle: 20

Station Type Date Time Source
KCEW TAF UTC NOAA

Error!

Example: see airport list